sensor_id;sensor_type;location;lat;lon;timestamp;temperature;humidity
3492;DHT22;1760;52.480;13.422;2024-03-08T00:01:15;4.50;99.90
3492;DHT22;1760;52.480;13.422;2024-03-08T00:03:44;4.50;99.90
3492;DHT22;1760;52.480;13.422;2024-03-08T00:06:11;4.50;99.90
3492;DHT22;1760;52.480;13.422;2024-03-08T00:08:39;4.40;99.90
3492;DHT22;1760;52.480;13.422;2024-03-08T00:11:06;4.40;99.90
3492;DHT22;1760;52.480;13.422;2024-03-08T00:13:33;4.40;99.90
3492;DHT22;1760;52.480;13.422;2024-03-08T00:16:00;4.40;99.90
3492;DHT22;1760;52.480;13.422;2024-03-08T00:18:27;4.40;99.90
3492;DHT22;1760;52.480;13.422;2024-03-08T00:20:55;4.40;99.90
3492;DHT22;1760;52.480;13.422;2024-03-08T00:23:22;4.40;99.90
3492;DHT22;1760;52.480;13.422;2024-03-08T00:25:50;4.40;99.90
3492;DHT22;1760;52.480;13.422;2024-03-08T00:28:17;4.40;99.90
3492;DHT22;1760;52.480;13.422;2024-03-08T00:30:44;4.40;99.90
3492;DHT22;1760;52.480;13.422;2024-03-08T00:33:12;4.40;99.90
3492;DHT22;1760;52.480;13.422;2024-03-08T00:35:39;4.40;99.90
3492;DHT22;1760;52.480;13.422;2024-03-08T00:38:06;4.40;99.90
3492;DHT22;1760;52.480;13.422;2024-03-08T00:40:33;4.40;99.90
3492;DHT22;1760;52.480;13.422;2024-03-08T00:43:01;4.40;99.90
3492;DHT22;1760;52.480;13.422;2024-03-08T00:45:29;4.40;99.90
3492;DHT22;1760;52.480;13.422;2024-03-08T00:47:56;4.40;99.90
3492;DHT22;1760;52.480;13.422;2024-03-08T00:50:23;4.40;99.90
3492;DHT22;1760;52.480;13.422;2024-03-08T00:52:50;4.30;99.90
3492;DHT22;1760;52.480;13.422;2024-03-08T00:55:16;4.30;99.90
3492;DHT22;1760;52.480;13.422;2024-03-08T00:57:43;4.30;99.90
3492;DHT22;1760;52.480;13.422;2024-03-08T01:00:13;4.30;99.90
3492;DHT22;1760;52.480;13.422;2024-03-08T01:02:40;4.20;99.90
3492;DHT22;1760;52.480;13.422;2024-03-08T01:05:07;4.30;99.90
3492;DHT22;1760;52.480;13.422;2024-03-08T01:07:34;4.20;99.90
3492;DHT22;1760;52.480;13.422;2024-03-08T01:10:01;4.20;99.90
3492;DHT22;1760;52.480;13.422;2024-03-08T01:12:28;4.20;99.90
3492;DHT22;1760;52.480;13.422;2024-03-08T01:14:56;4.20;99.90
3492;DHT22;1760;52.480;13.422;2024-03-08T01:17:25;4.20;99.90
3492;DHT22;1760;52.480;13.422;2024-03-08T01:19:52;4.20;99.90
3492;DHT22;1760;52.480;13.422;2024-03-08T01:22:19;4.20;99.90
3492;DHT22;1760;52.480;13.422;2024-03-08T01:24:48;4.20;99.90
3492;DHT22;1760;52.480;13.422;2024-03-08T01:27:15;4.20;99.90
3492;DHT22;1760;52.480;13.422;2024-03-08T01:29:41;4.20;99.90
3492;DHT22;1760;52.480;13.422;2024-03-08T01:32:08;4.20;99.90
3492;DHT22;1760;52.480;13.422;2024-03-08T01:34:36;4.10;99.90
3492;DHT22;1760;52.480;13.422;2024-03-08T01:37:03;4.10;99.90
3492;DHT22;1760;52.480;13.422;2024-03-08T01:39:32;4.10;99.90
3492;DHT22;1760;52.480;13.422;2024-03-08T01:41:59;4.10;99.90
3492;DHT22;1760;52.480;13.422;2024-03-08T01:44:26;4.10;99.90
3492;DHT22;1760;52.480;13.422;2024-03-08T01:46:53;4.10;99.90
3492;DHT22;1760;52.480;13.422;2024-03-08T01:49:22;4.10;99.90
3492;DHT22;1760;52.480;13.422;2024-03-08T01:51:50;4.10;99.90
3492;DHT22;1760;52.480;13.422;2024-03-08T01:54:22;4.10;99.90
3492;DHT22;1760;52.480;13.422;2024-03-08T01:56:52;4.10;99.90
3492;DHT22;1760;52.480;13.422;2024-03-08T01:59:20;4.10;99.90
3492;DHT22;1760;52.480;13.422;2024-03-08T02:01:47;4.00;99.90
3492;DHT22;1760;52.480;13.422;2024-03-08T02:04:14;4.10;99.90
3492;DHT22;1760;52.480;13.422;2024-03-08T02:06:42;4.00;99.90
3492;DHT22;1760;52.480;13.422;2024-03-08T02:09:10;4.10;99.90
3492;DHT22;1760;52.480;13.422;2024-03-08T02:11:37;4.00;99.90
3492;DHT22;1760;52.480;13.422;2024-03-08T02:14:04;4.10;99.90
3492;DHT22;1760;52.480;13.422;2024-03-08T02:16:31;4.00;99.90
3492;DHT22;1760;52.480;13.422;2024-03-08T02:18:58;4.00;99.90
3492;DHT22;1760;52.480;13.422;2024-03-08T02:21:27;4.00;99.90
3492;DHT22;1760;52.480;13.422;2024-03-08T02:23:54;4.00;99.90
3492;DHT22;1760;52.480;13.422;2024-03-08T02:26:21;3.90;99.90
3492;DHT22;1760;52.480;13.422;2024-03-08T02:28:48;3.90;99.90
3492;DHT22;1760;52.480;13.422;2024-03-08T02:31:15;3.90;99.90
3492;DHT22;1760;52.480;13.422;2024-03-08T02:33:43;3.90;99.90
3492;DHT22;1760;52.480;13.422;2024-03-08T02:36:12;3.80;99.90
3492;DHT22;1760;52.480;13.422;2024-03-08T02:38:40;3.80;99.90
3492;DHT22;1760;52.480;13.422;2024-03-08T02:41:07;3.80;99.90
3492;DHT22;1760;52.480;13.422;2024-03-08T02:43:34;3.80;99.90
3492;DHT22;1760;52.480;13.422;2024-03-08T02:46:01;3.80;99.90
3492;DHT22;1760;52.480;13.422;2024-03-08T02:48:28;3.80;99.90
3492;DHT22;1760;52.480;13.422;2024-03-08T02:50:55;3.70;99.90
3492;DHT22;1760;52.480;13.422;2024-03-08T02:53:22;3.70;99.90
3492;DHT22;1760;52.480;13.422;2024-03-08T02:55:51;3.70;99.90
3492;DHT22;1760;52.480;13.422;2024-03-08T02:58:18;3.70;99.90
3492;DHT22;1760;52.480;13.422;2024-03-08T03:00:45;3.60;99.90
3492;DHT22;1760;52.480;13.422;2024-03-08T03:03:12;3.60;99.90
3492;DHT22;1760;52.480;13.422;2024-03-08T03:05:39;3.60;99.90
3492;DHT22;1760;52.480;13.422;2024-03-08T03:08:07;3.60;99.90
3492;DHT22;1760;52.480;13.422;2024-03-08T03:10:34;3.50;99.90
3492;DHT22;1760;52.480;13.422;2024-03-08T03:13:03;3.50;99.90
3492;DHT22;1760;52.480;13.422;2024-03-08T03:15:30;3.50;99.90
3492;DHT22;1760;52.480;13.422;2024-03-08T03:17:57;3.50;99.90
3492;DHT22;1760;52.480;13.422;2024-03-08T03:20:24;3.50;99.90
3492;DHT22;1760;52.480;13.422;2024-03-08T03:22:52;3.50;99.90
3492;DHT22;1760;52.480;13.422;2024-03-08T03:25:19;3.40;99.90
3492;DHT22;1760;52.480;13.422;2024-03-08T03:27:51;3.40;99.90
3492;DHT22;1760;52.480;13.422;2024-03-08T03:30:19;3.40;99.90
3492;DHT22;1760;52.480;13.422;2024-03-08T03:32:47;3.40;99.90
3492;DHT22;1760;52.480;13.422;2024-03-08T03:35:15;3.40;99.90
3492;DHT22;1760;52.480;13.422;2024-03-08T03:37:42;3.40;99.90
3492;DHT22;1760;52.480;13.422;2024-03-08T03:40:12;3.30;99.90
3492;DHT22;1760;52.480;13.422;2024-03-08T03:42:39;3.30;99.90
3492;DHT22;1760;52.480;13.422;2024-03-08T03:45:06;3.30;99.90
3492;DHT22;1760;52.480;13.422;2024-03-08T03:47:36;3.20;99.90
3492;DHT22;1760;52.480;13.422;2024-03-08T03:50:05;3.20;99.90
3492;DHT22;1760;52.480;13.422;2024-03-08T03:52:32;3.20;99.90
3492;DHT22;1760;52.480;13.422;2024-03-08T03:54:59;3.20;99.90
3492;DHT22;1760;52.480;13.422;2024-03-08T03:57:26;3.10;99.90
3492;DHT22;1760;52.480;13.422;2024-03-08T03:59:53;3.10;99.90
3492;DHT22;1760;52.480;13.422;2024-03-08T04:02:19;3.10;99.90
3492;DHT22;1760;52.480;13.422;2024-03-08T04:04:48;3.10;99.90
3492;DHT22;1760;52.480;13.422;2024-03-08T04:07:15;3.00;99.90
3492;DHT22;1760;52.480;13.422;2024-03-08T04:09:42;3.00;99.90
3492;DHT22;1760;52.480;13.422;2024-03-08T04:12:09;2.90;99.90
3492;DHT22;1760;52.480;13.422;2024-03-08T04:14:36;2.90;99.90
3492;DHT22;1760;52.480;13.422;2024-03-08T04:17:03;2.90;99.90
3492;DHT22;1760;52.480;13.422;2024-03-08T04:19:31;3.00;99.90
3492;DHT22;1760;52.480;13.422;2024-03-08T04:22:01;3.00;99.90
3492;DHT22;1760;52.480;13.422;2024-03-08T04:24:28;2.90;99.90
3492;DHT22;1760;52.480;13.422;2024-03-08T04:26:56;2.90;99.90
3492;DHT22;1760;52.480;13.422;2024-03-08T04:29:23;2.90;99.90
3492;DHT22;1760;52.480;13.422;2024-03-08T04:31:50;2.90;99.90
3492;DHT22;1760;52.480;13.422;2024-03-08T04:34:19;2.90;99.90
3492;DHT22;1760;52.480;13.422;2024-03-08T04:36:46;2.80;99.90
3492;DHT22;1760;52.480;13.422;2024-03-08T04:39:14;2.80;99.90
3492;DHT22;1760;52.480;13.422;2024-03-08T04:41:42;2.70;99.90
3492;DHT22;1760;52.480;13.422;2024-03-08T04:44:10;2.60;99.90
3492;DHT22;1760;52.480;13.422;2024-03-08T04:46:38;2.60;99.90
3492;DHT22;1760;52.480;13.422;2024-03-08T04:49:05;2.60;99.90
3492;DHT22;1760;52.480;13.422;2024-03-08T04:51:32;2.60;99.90
3492;DHT22;1760;52.480;13.422;2024-03-08T04:54:00;2.50;99.90
3492;DHT22;1760;52.480;13.422;2024-03-08T04:56:29;2.50;99.90
3492;DHT22;1760;52.480;13.422;2024-03-08T04:58:55;2.50;99.90
3492;DHT22;1760;52.480;13.422;2024-03-08T05:01:22;2.50;99.90
3492;DHT22;1760;52.480;13.422;2024-03-08T05:03:49;2.40;99.90
3492;DHT22;1760;52.480;13.422;2024-03-08T05:06:19;2.40;99.90
3492;DHT22;1760;52.480;13.422;2024-03-08T05:08:46;2.30;99.90
3492;DHT22;1760;52.480;13.422;2024-03-08T05:11:13;2.40;99.90
3492;DHT22;1760;52.480;13.422;2024-03-08T05:13:42;2.40;99.90
3492;DHT22;1760;52.480;13.422;2024-03-08T05:16:09;2.30;99.90
3492;DHT22;1760;52.480;13.422;2024-03-08T05:18:36;2.30;99.90
3492;DHT22;1760;52.480;13.422;2024-03-08T05:21:02;2.30;99.90
3492;DHT22;1760;52.480;13.422;2024-03-08T05:23:29;2.40;99.90
3492;DHT22;1760;52.480;13.422;2024-03-08T05:25:56;2.40;99.90
3492;DHT22;1760;52.480;13.422;2024-03-08T05:28:23;2.50;99.90
3492;DHT22;1760;52.480;13.422;2024-03-08T05:30:51;2.40;99.90
3492;DHT22;1760;52.480;13.422;2024-03-08T05:33:18;2.40;99.90
3492;DHT22;1760;52.480;13.422;2024-03-08T05:35:45;2.40;99.90
3492;DHT22;1760;52.480;13.422;2024-03-08T05:38:11;2.40;99.90
3492;DHT22;1760;52.480;13.422;2024-03-08T05:40:38;2.40;99.90
3492;DHT22;1760;52.480;13.422;2024-03-08T05:43:05;2.60;99.90
3492;DHT22;1760;52.480;13.422;2024-03-08T05:45:32;2.40;99.90
3492;DHT22;1760;52.480;13.422;2024-03-08T05:48:01;2.40;99.90
3492;DHT22;1760;52.480;13.422;2024-03-08T05:50:28;2.40;99.90
3492;DHT22;1760;52.480;13.422;2024-03-08T05:52:55;2.40;99.90
3492;DHT22;1760;52.480;13.422;2024-03-08T05:55:22;2.40;99.90
3492;DHT22;1760;52.480;13.422;2024-03-08T05:57:50;2.40;99.90
3492;DHT22;1760;52.480;13.422;2024-03-08T06:00:19;2.40;99.90
3492;DHT22;1760;52.480;13.422;2024-03-08T06:02:47;2.40;99.90
3492;DHT22;1760;52.480;13.422;2024-03-08T06:05:16;2.40;99.90
3492;DHT22;1760;52.480;13.422;2024-03-08T06:07:43;2.40;99.90
3492;DHT22;1760;52.480;13.422;2024-03-08T06:10:10;2.40;99.90
3492;DHT22;1760;52.480;13.422;2024-03-08T06:12:38;2.40;99.90
3492;DHT22;1760;52.480;13.422;2024-03-08T06:15:07;2.40;99.90
3492;DHT22;1760;52.480;13.422;2024-03-08T06:17:35;2.40;99.90
3492;DHT22;1760;52.480;13.422;2024-03-08T06:20:02;2.40;99.90
3492;DHT22;1760;52.480;13.422;2024-03-08T06:22:37;2.40;99.90
3492;DHT22;1760;52.480;13.422;2024-03-08T06:25:06;2.40;99.90
3492;DHT22;1760;52.480;13.422;2024-03-08T06:27:33;2.40;99.90
3492;DHT22;1760;52.480;13.422;2024-03-08T06:30:00;2.40;99.90
3492;DHT22;1760;52.480;13.422;2024-03-08T06:32:27;2.40;99.90
3492;DHT22;1760;52.480;13.422;2024-03-08T06:34:54;2.40;99.90
3492;DHT22;1760;52.480;13.422;2024-03-08T06:37:20;2.50;99.90
3492;DHT22;1760;52.480;13.422;2024-03-08T06:39:50;2.50;99.90
3492;DHT22;1760;52.480;13.422;2024-03-08T06:42:19;2.50;99.90
3492;DHT22;1760;52.480;13.422;2024-03-08T06:44:46;2.60;99.90
3492;DHT22;1760;52.480;13.422;2024-03-08T06:47:15;2.60;99.90
3492;DHT22;1760;52.480;13.422;2024-03-08T06:49:42;2.60;99.90
3492;DHT22;1760;52.480;13.422;2024-03-08T06:52:09;2.60;99.90
3492;DHT22;1760;52.480;13.422;2024-03-08T06:54:36;2.70;99.90
3492;DHT22;1760;52.480;13.422;2024-03-08T06:57:05;2.70;99.90
3492;DHT22;1760;52.480;13.422;2024-03-08T06:59:31;2.80;99.90
3492;DHT22;1760;52.480;13.422;2024-03-08T07:01:59;2.70;99.90
3492;DHT22;1760;52.480;13.422;2024-03-08T07:04:26;2.80;99.90
3492;DHT22;1760;52.480;13.422;2024-03-08T07:06:55;2.80;99.90
3492;DHT22;1760;52.480;13.422;2024-03-08T07:09:23;2.90;99.90
3492;DHT22;1760;52.480;13.422;2024-03-08T07:11:50;3.00;99.90
3492;DHT22;1760;52.480;13.422;2024-03-08T07:14:21;3.00;99.90
3492;DHT22;1760;52.480;13.422;2024-03-08T07:16:48;3.10;99.90
3492;DHT22;1760;52.480;13.422;2024-03-08T07:19:15;3.20;99.90
3492;DHT22;1760;52.480;13.422;2024-03-08T07:21:42;3.20;99.90
3492;DHT22;1760;52.480;13.422;2024-03-08T07:24:09;3.30;99.90
3492;DHT22;1760;52.480;13.422;2024-03-08T07:26:58;3.30;99.90
3492;DHT22;1760;52.480;13.422;2024-03-08T07:29:28;3.40;99.90
3492;DHT22;1760;52.480;13.422;2024-03-08T07:31:55;3.40;99.90
3492;DHT22;1760;52.480;13.422;2024-03-08T07:34:33;3.50;99.90
3492;DHT22;1760;52.480;13.422;2024-03-08T07:37:00;3.60;99.90
3492;DHT22;1760;52.480;13.422;2024-03-08T07:39:27;3.70;99.90
3492;DHT22;1760;52.480;13.422;2024-03-08T07:41:54;3.80;99.90
3492;DHT22;1760;52.480;13.422;2024-03-08T07:44:21;3.80;99.90
3492;DHT22;1760;52.480;13.422;2024-03-08T07:46:50;3.90;99.90
3492;DHT22;1760;52.480;13.422;2024-03-08T07:49:17;3.90;99.90
3492;DHT22;1760;52.480;13.422;2024-03-08T07:51:44;4.10;99.90
3492;DHT22;1760;52.480;13.422;2024-03-08T07:54:11;4.10;99.90
3492;DHT22;1760;52.480;13.422;2024-03-08T07:56:38;4.10;99.90
3492;DHT22;1760;52.480;13.422;2024-03-08T07:59:05;4.20;99.90
3492;DHT22;1760;52.480;13.422;2024-03-08T08:01:33;4.30;99.90
3492;DHT22;1760;52.480;13.422;2024-03-08T08:04:01;4.30;99.90
3492;DHT22;1760;52.480;13.422;2024-03-08T08:06:28;4.40;99.90
3492;DHT22;1760;52.480;13.422;2024-03-08T08:08:57;4.40;99.90
3492;DHT22;1760;52.480;13.422;2024-03-08T08:11:26;4.50;99.90
3492;DHT22;1760;52.480;13.422;2024-03-08T08:13:53;4.60;99.90
3492;DHT22;1760;52.480;13.422;2024-03-08T08:16:20;4.70;99.90
3492;DHT22;1760;52.480;13.422;2024-03-08T08:18:47;4.80;99.90
3492;DHT22;1760;52.480;13.422;2024-03-08T08:21:15;4.90;99.90
3492;DHT22;1760;52.480;13.422;2024-03-08T08:23:43;5.00;99.90
3492;DHT22;1760;52.480;13.422;2024-03-08T08:26:10;5.10;99.90
3492;DHT22;1760;52.480;13.422;2024-03-08T08:28:37;5.20;99.90
3492;DHT22;1760;52.480;13.422;2024-03-08T08:31:06;5.30;99.90
3492;DHT22;1760;52.480;13.422;2024-03-08T08:33:33;5.40;99.90
3492;DHT22;1760;52.480;13.422;2024-03-08T08:36:01;5.40;99.90
3492;DHT22;1760;52.480;13.422;2024-03-08T08:38:30;5.50;99.90
3492;DHT22;1760;52.480;13.422;2024-03-08T08:40:57;5.60;99.90
3492;DHT22;1760;52.480;13.422;2024-03-08T08:43:24;5.60;99.90
3492;DHT22;1760;52.480;13.422;2024-03-08T08:45:52;5.70;99.90
3492;DHT22;1760;52.480;13.422;2024-03-08T08:48:20;5.80;99.90
3492;DHT22;1760;52.480;13.422;2024-03-08T08:50:47;5.90;99.90
3492;DHT22;1760;52.480;13.422;2024-03-08T08:53:16;5.90;99.90
3492;DHT22;1760;52.480;13.422;2024-03-08T08:55:45;6.00;99.90
3492;DHT22;1760;52.480;13.422;2024-03-08T08:58:12;6.10;99.90
3492;DHT22;1760;52.480;13.422;2024-03-08T09:00:40;6.50;99.90
3492;DHT22;1760;52.480;13.422;2024-03-08T09:03:07;7.70;99.90
3492;DHT22;1760;52.480;13.422;2024-03-08T09:05:34;9.20;99.90
3492;DHT22;1760;52.480;13.422;2024-03-08T09:08:01;10.80;99.90
3492;DHT22;1760;52.480;13.422;2024-03-08T09:10:28;12.30;99.10
3492;DHT22;1760;52.480;13.422;2024-03-08T09:12:56;13.50;92.60
3492;DHT22;1760;52.480;13.422;2024-03-08T09:15:24;14.60;87.40
3492;DHT22;1760;52.480;13.422;2024-03-08T09:17:54;15.70;79.10
3492;DHT22;1760;52.480;13.422;2024-03-08T09:20:21;16.50;68.80
3492;DHT22;1760;52.480;13.422;2024-03-08T09:22:48;17.00;65.40
3492;DHT22;1760;52.480;13.422;2024-03-08T09:25:14;17.60;61.70
3492;DHT22;1760;52.480;13.422;2024-03-08T09:27:41;17.90;59.10
3492;DHT22;1760;52.480;13.422;2024-03-08T09:30:11;18.50;56.70
3492;DHT22;1760;52.480;13.422;2024-03-08T09:32:38;18.20;53.90
3492;DHT22;1760;52.480;13.422;2024-03-08T09:35:06;17.00;54.60
3492;DHT22;1760;52.480;13.422;2024-03-08T09:37:33;15.80;55.80
3492;DHT22;1760;52.480;13.422;2024-03-08T09:40:00;14.80;57.40
3492;DHT22;1760;52.480;13.422;2024-03-08T09:42:30;13.90;59.30
3492;DHT22;1760;52.480;13.422;2024-03-08T09:44:58;13.00;60.50
3492;DHT22;1760;52.480;13.422;2024-03-08T09:47:28;12.40;63.50
3492;DHT22;1760;52.480;13.422;2024-03-08T09:49:59;12.40;64.20
3492;DHT22;1760;52.480;13.422;2024-03-08T09:52:26;13.10;62.10
3492;DHT22;1760;52.480;13.422;2024-03-08T09:54:56;14.00;60.80
3492;DHT22;1760;52.480;13.422;2024-03-08T09:57:23;14.90;59.80
3492;DHT22;1760;52.480;13.422;2024-03-08T09:59:51;16.00;57.70
3492;DHT22;1760;52.480;13.422;2024-03-08T10:02:18;16.80;56.00
3492;DHT22;1760;52.480;13.422;2024-03-08T10:04:48;17.50;54.60
3492;DHT22;1760;52.480;13.422;2024-03-08T10:07:14;18.20;52.80
3492;DHT22;1760;52.480;13.422;2024-03-08T10:09:41;18.70;50.90
3492;DHT22;1760;52.480;13.422;2024-03-08T10:12:13;18.90;49.30
3492;DHT22;1760;52.480;13.422;2024-03-08T10:14:41;19.00;49.70
3492;DHT22;1760;52.480;13.422;2024-03-08T10:17:08;18.90;48.60
3492;DHT22;1760;52.480;13.422;2024-03-08T10:19:35;19.10;48.30
3492;DHT22;1760;52.480;13.422;2024-03-08T10:22:04;19.30;47.80
3492;DHT22;1760;52.480;13.422;2024-03-08T10:24:32;19.60;46.90
3492;DHT22;1760;52.480;13.422;2024-03-08T10:27:00;19.60;46.70
3492;DHT22;1760;52.480;13.422;2024-03-08T10:29:30;19.40;46.40
3492;DHT22;1760;52.480;13.422;2024-03-08T10:31:57;19.40;46.40
3492;DHT22;1760;52.480;13.422;2024-03-08T10:34:24;19.30;46.80
3492;DHT22;1760;52.480;13.422;2024-03-08T10:36:52;19.20;46.00
3492;DHT22;1760;52.480;13.422;2024-03-08T10:39:24;18.90;46.40
3492;DHT22;1760;52.480;13.422;2024-03-08T10:41:56;18.90;46.10
3492;DHT22;1760;52.480;13.422;2024-03-08T10:44:43;19.00;45.50
3492;DHT22;1760;52.480;13.422;2024-03-08T10:47:32;19.20;44.70
3492;DHT22;1760;52.480;13.422;2024-03-08T10:50:11;19.10;44.50
3492;DHT22;1760;52.480;13.422;2024-03-08T10:52:43;18.70;44.70
3492;DHT22;1760;52.480;13.422;2024-03-08T10:55:12;18.50;45.40
3492;DHT22;1760;52.480;13.422;2024-03-08T10:57:41;18.40;45.20
3492;DHT22;1760;52.480;13.422;2024-03-08T11:00:08;18.40;45.60
3492;DHT22;1760;52.480;13.422;2024-03-08T11:02:37;18.30;45.90
3492;DHT22;1760;52.480;13.422;2024-03-08T11:05:04;18.10;45.90
3492;DHT22;1760;52.480;13.422;2024-03-08T11:07:41;17.90;46.30
3492;DHT22;1760;52.480;13.422;2024-03-08T11:10:20;17.70;46.20
3492;DHT22;1760;52.480;13.422;2024-03-08T11:12:47;17.20;46.60
3492;DHT22;1760;52.480;13.422;2024-03-08T11:15:15;16.80;47.10
3492;DHT22;1760;52.480;13.422;2024-03-08T11:17:48;16.60;47.50
3492;DHT22;1760;52.480;13.422;2024-03-08T11:20:17;16.20;48.10
3492;DHT22;1760;52.480;13.422;2024-03-08T11:22:50;15.90;48.10
3492;DHT22;1760;52.480;13.422;2024-03-08T11:25:43;15.60;49.20
3492;DHT22;1760;52.480;13.422;2024-03-08T11:28:15;15.10;50.10
3492;DHT22;1760;52.480;13.422;2024-03-08T11:30:46;14.80;50.20
3492;DHT22;1760;52.480;13.422;2024-03-08T11:33:15;14.30;50.80
3492;DHT22;1760;52.480;13.422;2024-03-08T11:35:43;14.10;51.50
3492;DHT22;1760;52.480;13.422;2024-03-08T11:38:12;13.80;51.20
3492;DHT22;1760;52.480;13.422;2024-03-08T11:40:40;13.60;51.50
3492;DHT22;1760;52.480;13.422;2024-03-08T11:43:09;13.40;52.10
3492;DHT22;1760;52.480;13.422;2024-03-08T11:45:36;13.20;52.70
3492;DHT22;1760;52.480;13.422;2024-03-08T11:48:04;13.00;52.70
3492;DHT22;1760;52.480;13.422;2024-03-08T11:50:31;12.90;51.50
3492;DHT22;1760;52.480;13.422;2024-03-08T11:53:02;12.60;51.40
3492;DHT22;1760;52.480;13.422;2024-03-08T11:55:30;12.40;51.80
3492;DHT22;1760;52.480;13.422;2024-03-08T11:58:02;12.20;52.60
3492;DHT22;1760;52.480;13.422;2024-03-08T12:00:31;12.10;52.00
3492;DHT22;1760;52.480;13.422;2024-03-08T12:03:04;11.90;50.90
3492;DHT22;1760;52.480;13.422;2024-03-08T12:05:32;11.90;50.60
3492;DHT22;1760;52.480;13.422;2024-03-08T12:08:00;11.90;50.10
3492;DHT22;1760;52.480;13.422;2024-03-08T12:10:27;11.70;51.30
3492;DHT22;1760;52.480;13.422;2024-03-08T12:12:55;11.70;51.60
3492;DHT22;1760;52.480;13.422;2024-03-08T12:15:25;11.70;53.70
3492;DHT22;1760;52.480;13.422;2024-03-08T12:17:55;11.70;56.20
3492;DHT22;1760;52.480;13.422;2024-03-08T12:20:24;11.80;56.50
3492;DHT22;1760;52.480;13.422;2024-03-08T12:22:52;11.80;56.10
3492;DHT22;1760;52.480;13.422;2024-03-08T12:25:20;11.90;56.20
3492;DHT22;1760;52.480;13.422;2024-03-08T12:27:49;11.90;56.70
3492;DHT22;1760;52.480;13.422;2024-03-08T12:30:19;11.90;57.00
3492;DHT22;1760;52.480;13.422;2024-03-08T12:32:54;11.90;56.90
3492;DHT22;1760;52.480;13.422;2024-03-08T12:35:23;12.00;56.90
3492;DHT22;1760;52.480;13.422;2024-03-08T12:37:52;11.90;56.50
3492;DHT22;1760;52.480;13.422;2024-03-08T12:40:21;11.90;57.00
3492;DHT22;1760;52.480;13.422;2024-03-08T12:42:52;11.90;57.00
3492;DHT22;1760;52.480;13.422;2024-03-08T12:45:19;12.00;57.50
3492;DHT22;1760;52.480;13.422;2024-03-08T12:47:47;12.00;57.30
3492;DHT22;1760;52.480;13.422;2024-03-08T12:50:16;12.00;57.10
3492;DHT22;1760;52.480;13.422;2024-03-08T12:52:43;11.90;57.00
3492;DHT22;1760;52.480;13.422;2024-03-08T12:55:10;12.00;57.40
3492;DHT22;1760;52.480;13.422;2024-03-08T12:57:38;12.00;57.60
3492;DHT22;1760;52.480;13.422;2024-03-08T13:00:06;12.00;57.70
3492;DHT22;1760;52.480;13.422;2024-03-08T13:02:39;12.00;57.50
3492;DHT22;1760;52.480;13.422;2024-03-08T13:05:06;12.00;57.10
3492;DHT22;1760;52.480;13.422;2024-03-08T13:07:37;12.00;56.80
3492;DHT22;1760;52.480;13.422;2024-03-08T13:10:05;12.00;56.90
3492;DHT22;1760;52.480;13.422;2024-03-08T13:12:32;12.10;56.90
3492;DHT22;1760;52.480;13.422;2024-03-08T13:15:04;12.20;57.00
3492;DHT22;1760;52.480;13.422;2024-03-08T13:17:31;12.40;56.80
3492;DHT22;1760;52.480;13.422;2024-03-08T13:19:58;12.40;56.60
3492;DHT22;1760;52.480;13.422;2024-03-08T13:22:25;12.40;56.70
3492;DHT22;1760;52.480;13.422;2024-03-08T13:24:55;12.50;56.90
3492;DHT22;1760;52.480;13.422;2024-03-08T13:27:22;12.50;57.00
3492;DHT22;1760;52.480;13.422;2024-03-08T13:29:51;12.70;56.90
3492;DHT22;1760;52.480;13.422;2024-03-08T13:32:18;12.90;56.40
3492;DHT22;1760;52.480;13.422;2024-03-08T13:34:46;13.00;56.60
3492;DHT22;1760;52.480;13.422;2024-03-08T13:37:16;13.20;56.00
3492;DHT22;1760;52.480;13.422;2024-03-08T13:39:44;13.20;55.70
3492;DHT22;1760;52.480;13.422;2024-03-08T13:42:13;13.20;55.50
3492;DHT22;1760;52.480;13.422;2024-03-08T13:44:44;13.20;55.60
3492;DHT22;1760;52.480;13.422;2024-03-08T13:47:12;13.00;55.90
3492;DHT22;1760;52.480;13.422;2024-03-08T13:49:39;12.90;55.90
3492;DHT22;1760;52.480;13.422;2024-03-08T13:52:06;12.90;56.00
3492;DHT22;1760;52.480;13.422;2024-03-08T13:54:35;12.80;55.70
3492;DHT22;1760;52.480;13.422;2024-03-08T13:57:03;12.80;56.60
3492;DHT22;1760;52.480;13.422;2024-03-08T13:59:32;12.70;56.30
3492;DHT22;1760;52.480;13.422;2024-03-08T14:02:01;12.70;56.60
3492;DHT22;1760;52.480;13.422;2024-03-08T14:04:28;12.50;56.40
3492;DHT22;1760;52.480;13.422;2024-03-08T14:06:55;12.50;55.80
3492;DHT22;1760;52.480;13.422;2024-03-08T14:09:27;12.50;55.20
3492;DHT22;1760;52.480;13.422;2024-03-08T14:11:54;12.60;55.50
3492;DHT22;1760;52.480;13.422;2024-03-08T14:14:21;12.70;55.30
3492;DHT22;1760;52.480;13.422;2024-03-08T14:16:52;12.80;55.50
3492;DHT22;1760;52.480;13.422;2024-03-08T14:19:19;12.70;55.00
3492;DHT22;1760;52.480;13.422;2024-03-08T14:21:46;12.70;55.50
3492;DHT22;1760;52.480;13.422;2024-03-08T14:24:15;12.70;55.60
3492;DHT22;1760;52.480;13.422;2024-03-08T14:26:42;12.60;55.30
3492;DHT22;1760;52.480;13.422;2024-03-08T14:29:11;12.50;55.50
3492;DHT22;1760;52.480;13.422;2024-03-08T14:31:40;12.50;56.00
3492;DHT22;1760;52.480;13.422;2024-03-08T14:34:10;12.50;55.30
3492;DHT22;1760;52.480;13.422;2024-03-08T14:36:38;12.50;55.90
3492;DHT22;1760;52.480;13.422;2024-03-08T14:39:06;12.40;56.00
3492;DHT22;1760;52.480;13.422;2024-03-08T14:41:33;12.50;56.40
3492;DHT22;1760;52.480;13.422;2024-03-08T14:44:00;12.60;55.70
3492;DHT22;1760;52.480;13.422;2024-03-08T14:46:28;12.60;55.60
3492;DHT22;1760;52.480;13.422;2024-03-08T14:48:56;12.50;55.80
3492;DHT22;1760;52.480;13.422;2024-03-08T14:51:24;12.50;55.70
3492;DHT22;1760;52.480;13.422;2024-03-08T14:53:53;12.40;55.80
3492;DHT22;1760;52.480;13.422;2024-03-08T14:56:21;12.30;56.00
3492;DHT22;1760;52.480;13.422;2024-03-08T14:58:48;12.20;55.70
3492;DHT22;1760;52.480;13.422;2024-03-08T15:01:17;12.20;55.50
3492;DHT22;1760;52.480;13.422;2024-03-08T15:03:47;12.10;55.70
3492;DHT22;1760;52.480;13.422;2024-03-08T15:06:15;12.00;55.60
3492;DHT22;1760;52.480;13.422;2024-03-08T15:08:47;12.00;55.40
3492;DHT22;1760;52.480;13.422;2024-03-08T15:11:14;11.90;55.40
3492;DHT22;1760;52.480;13.422;2024-03-08T15:13:47;11.90;56.40
3492;DHT22;1760;52.480;13.422;2024-03-08T15:16:17;11.80;55.60
3492;DHT22;1760;52.480;13.422;2024-03-08T15:18:44;11.80;55.80
3492;DHT22;1760;52.480;13.422;2024-03-08T15:21:14;11.70;55.80
3492;DHT22;1760;52.480;13.422;2024-03-08T15:23:46;11.60;56.30
3492;DHT22;1760;52.480;13.422;2024-03-08T15:26:16;11.50;56.10
3492;DHT22;1760;52.480;13.422;2024-03-08T15:28:43;11.50;56.40
3492;DHT22;1760;52.480;13.422;2024-03-08T15:31:11;11.40;56.60
3492;DHT22;1760;52.480;13.422;2024-03-08T15:33:39;11.30;57.00
3492;DHT22;1760;52.480;13.422;2024-03-08T15:36:10;11.20;57.40
3492;DHT22;1760;52.480;13.422;2024-03-08T15:38:39;11.20;58.30
3492;DHT22;1760;52.480;13.422;2024-03-08T15:41:08;11.10;57.60
3492;DHT22;1760;52.480;13.422;2024-03-08T15:43:36;11.00;57.70
3492;DHT22;1760;52.480;13.422;2024-03-08T15:46:03;11.00;57.70
3492;DHT22;1760;52.480;13.422;2024-03-08T15:48:34;11.00;58.00
3492;DHT22;1760;52.480;13.422;2024-03-08T15:51:02;10.90;58.20
3492;DHT22;1760;52.480;13.422;2024-03-08T15:53:39;10.90;58.70
3492;DHT22;1760;52.480;13.422;2024-03-08T15:56:20;10.90;58.90
3492;DHT22;1760;52.480;13.422;2024-03-08T15:58:48;10.80;59.10
3492;DHT22;1760;52.480;13.422;2024-03-08T16:01:15;10.70;59.20